createdAt,value
2023-01-03T00:01:58.974Z,13.11
2023-01-03T00:04:25.698Z,13.22
2023-01-03T00:06:53.352Z,13.13
2023-01-03T00:09:21.317Z,13.21
2023-01-03T00:12:07.521Z,13.18
2023-01-03T00:14:35.693Z,13.05
2023-01-03T00:17:02.941Z,13.05
2023-01-03T00:19:30.646Z,13.03
2023-01-03T00:21:57.182Z,13.10
2023-01-03T00:24:23.801Z,13.20
2023-01-03T00:26:50.555Z,13.20
2023-01-03T00:29:17.212Z,13.21
2023-01-03T00:31:43.778Z,13.18
2023-01-03T00:34:10.482Z,13.15
2023-01-03T00:36:37.727Z,13.18
2023-01-03T00:39:04.331Z,12.99
2023-01-03T00:41:31.004Z,13.04
2023-01-03T00:43:58.172Z,13.11
2023-01-03T00:46:25.104Z,13.03
2023-01-03T00:48:52.165Z,13.05
2023-01-03T00:51:20.528Z,13.01
2023-01-03T00:53:47.829Z,13.07
2023-01-03T00:56:18.454Z,13.11
2023-01-03T00:58:45.654Z,13.08
2023-01-03T01:01:13.698Z,13.08
2023-01-03T01:03:41.671Z,12.98
2023-01-03T01:06:22.290Z,13.11
2023-01-03T01:08:49.900Z,13.00
2023-01-03T01:11:16.901Z,13.02
2023-01-03T01:13:44.499Z,13.03
2023-01-03T01:16:12.777Z,12.94
2023-01-03T01:18:40.281Z,12.86
2023-01-03T01:21:07.665Z,12.79
2023-01-03T01:23:38.287Z,12.76
2023-01-03T01:26:05.634Z,12.65
2023-01-03T01:28:32.368Z,12.66
2023-01-03T01:31:00.032Z,12.72
2023-01-03T01:33:27.028Z,12.58
2023-01-03T01:35:54.136Z,12.62
2023-01-03T01:38:20.700Z,12.58
2023-01-03T01:40:47.592Z,12.55
2023-01-03T01:43:35.385Z,12.48
2023-01-03T01:46:06.353Z,12.34
2023-01-03T01:48:33.504Z,12.30
2023-01-03T01:51:00.092Z,12.38
2023-01-03T01:53:32.302Z,12.49
2023-01-03T01:56:01.719Z,12.55
2023-01-03T01:58:32.531Z,12.40
2023-01-03T02:00:59.255Z,12.47
2023-01-03T02:03:25.868Z,12.40
2023-01-03T02:05:54.290Z,12.40
2023-01-03T02:08:21.693Z,12.41
2023-01-03T02:11:09.234Z,12.36
2023-01-03T02:13:47.637Z,12.15
2023-01-03T02:16:23.323Z,12.09
2023-01-03T02:18:55.360Z,12.18
2023-01-03T02:21:33.920Z,12.24
2023-01-03T02:24:19.048Z,12.24
2023-01-03T02:26:48.455Z,12.15
2023-01-03T02:29:20.905Z,12.31
2023-01-03T02:31:53.294Z,12.21
2023-01-03T02:34:27.582Z,12.21
2023-01-03T02:37:14.506Z,12.29
2023-01-03T02:39:47.339Z,12.31
2023-01-03T02:42:52.956Z,12.24
2023-01-03T02:45:22.595Z,12.29
2023-01-03T02:47:53.533Z,12.19
2023-01-03T02:50:22.485Z,12.08
2023-01-03T02:52:51.221Z,12.03
2023-01-03T02:55:21.860Z,12.09
2023-01-03T02:58:11.472Z,12.16
2023-01-03T03:00:41.379Z,12.17
2023-01-03T03:03:13.441Z,12.07
2023-01-03T03:05:47.537Z,12.11
2023-01-03T03:08:14.168Z,12.22
2023-01-03T03:11:00.020Z,12.20
2023-01-03T03:13:34.084Z,12.25
2023-01-03T03:16:03.821Z,12.32
2023-01-03T03:18:39.305Z,12.38
2023-01-03T03:21:26.957Z,12.48
2023-01-03T03:24:12.381Z,12.56
2023-01-03T03:26:41.899Z,12.64
2023-01-03T03:29:11.974Z,12.52
2023-01-03T03:31:43.179Z,12.63
2023-01-03T03:34:25.645Z,12.68
2023-01-03T03:36:59.434Z,12.69
2023-01-03T03:39:46.412Z,12.68
2023-01-03T03:42:40.924Z,12.63
2023-01-03T03:45:13.111Z,12.44
2023-01-03T03:47:52.403Z,12.33
2023-01-03T03:50:24.523Z,12.39
2023-01-03T03:52:53.740Z,12.26
2023-01-03T03:55:30.239Z,12.35
2023-01-03T03:58:00.104Z,12.44
2023-01-03T04:00:29.480Z,12.35
2023-01-03T04:02:57.426Z,12.37
2023-01-03T04:05:25.245Z,12.41
2023-01-03T04:07:51.914Z,12.41
2023-01-03T04:10:20.878Z,12.44
2023-01-03T04:12:51.281Z,12.61
2023-01-03T04:15:18.226Z,12.63
2023-01-03T04:17:44.814Z,12.55
2023-01-03T04:20:11.831Z,12.72
2023-01-03T04:22:38.611Z,12.79
2023-01-03T04:25:05.412Z,12.84
2023-01-03T04:27:31.928Z,12.88
2023-01-03T04:29:58.513Z,12.79
2023-01-03T04:32:25.082Z,12.87
2023-01-03T04:34:51.763Z,12.90
2023-01-03T04:37:18.369Z,12.86
2023-01-03T04:39:45.022Z,12.88
2023-01-03T04:42:30.034Z,12.84
2023-01-03T04:44:56.774Z,12.85
2023-01-03T04:47:24.920Z,12.78
2023-01-03T04:49:51.551Z,12.70
2023-01-03T04:52:18.104Z,12.62
2023-01-03T04:54:44.796Z,12.64
2023-01-03T04:57:11.381Z,12.73
2023-01-03T04:59:38.058Z,12.71
2023-01-03T05:02:04.955Z,12.82
2023-01-03T05:04:32.101Z,12.87
2023-01-03T05:06:58.787Z,12.94
2023-01-03T05:09:27.231Z,12.77
2023-01-03T05:11:53.955Z,12.73
2023-01-03T05:14:20.627Z,12.70
2023-01-03T05:16:47.248Z,12.58
2023-01-03T05:19:13.990Z,12.66
2023-01-03T05:21:58.990Z,12.59
2023-01-03T05:24:37.424Z,12.67
2023-01-03T05:27:05.475Z,12.56
2023-01-03T05:29:33.431Z,12.73
2023-01-03T05:32:00.182Z,12.80
2023-01-03T05:34:26.863Z,12.81
2023-01-03T05:36:53.506Z,12.78
2023-01-03T05:39:20.045Z,12.83
2023-01-03T05:42:01.838Z,12.81
2023-01-03T05:44:31.025Z,12.89
2023-01-03T05:46:58.068Z,12.96
2023-01-03T05:49:24.665Z,12.96
2023-01-03T05:51:51.264Z,13.01
2023-01-03T05:54:19.305Z,13.00
2023-01-03T05:56:46.081Z,13.02
2023-01-03T05:59:12.787Z,12.95
2023-01-03T06:01:39.545Z,12.88
2023-01-03T06:04:06.625Z,12.85
2023-01-03T06:06:33.325Z,12.76
2023-01-03T06:08:59.913Z,12.76
2023-01-03T06:11:26.630Z,12.76
2023-01-03T06:13:53.262Z,12.69
2023-01-03T06:16:38.976Z,12.56
2023-01-03T06:19:06.534Z,12.61
2023-01-03T06:21:33.076Z,12.68
2023-01-03T06:23:59.703Z,12.70
2023-01-03T06:26:26.597Z,12.77
2023-01-03T06:28:53.485Z,12.76
2023-01-03T06:31:20.284Z,12.83
2023-01-03T06:33:47.411Z,12.86
2023-01-03T06:36:15.279Z,12.85
2023-01-03T06:38:41.932Z,12.88
2023-01-03T06:41:08.916Z,12.91
2023-01-03T06:43:35.818Z,12.91
2023-01-03T06:46:21.434Z,12.90
2023-01-03T06:49:06.515Z,12.88
2023-01-03T06:51:52.125Z,12.84
2023-01-03T06:54:29.640Z,12.87
2023-01-03T06:56:56.319Z,12.89
2023-01-03T06:59:23.383Z,12.94
2023-01-03T07:01:51.282Z,12.93
2023-01-03T07:04:18.593Z,12.76
2023-01-03T07:06:45.768Z,12.77
2023-01-03T07:09:12.797Z,12.69
2023-01-03T07:11:39.722Z,12.61
2023-01-03T07:14:07.014Z,12.71
2023-01-03T07:16:36.774Z,12.72
2023-01-03T07:19:04.740Z,12.65
2023-01-03T07:21:32.939Z,12.62
2023-01-03T07:24:02.914Z,12.42
2023-01-03T07:26:31.027Z,12.49
2023-01-03T07:28:58.454Z,12.43
2023-01-03T07:31:25.241Z,12.50
2023-01-03T07:33:53.170Z,12.50
2023-01-03T07:36:22.063Z,12.54
2023-01-03T07:38:48.643Z,12.62
2023-01-03T07:41:15.690Z,12.59
2023-01-03T07:43:46.200Z,12.54
2023-01-03T07:46:15.971Z,12.57
2023-01-03T07:48:43.440Z,12.63
2023-01-03T07:51:11.000Z,12.70
2023-01-03T07:53:38.415Z,12.78
2023-01-03T07:56:15.304Z,12.82
2023-01-03T07:58:42.784Z,12.85
2023-01-03T08:01:09.514Z,12.94
2023-01-03T08:03:36.670Z,13.08
2023-01-03T08:06:05.072Z,13.16
2023-01-03T08:08:32.207Z,13.27
2023-01-03T08:11:18.142Z,13.39
2023-01-03T08:13:45.331Z,13.41
2023-01-03T08:16:13.112Z,13.37
2023-01-03T08:18:40.547Z,13.38
2023-01-03T08:21:07.967Z,13.33
2023-01-03T08:23:35.013Z,13.35
2023-01-03T08:26:02.879Z,13.35
2023-01-03T08:28:29.586Z,13.42
2023-01-03T08:30:56.337Z,13.58
2023-01-03T08:33:23.864Z,13.65
2023-01-03T08:35:57.923Z,13.73
2023-01-03T08:38:27.750Z,13.84
2023-01-03T08:40:54.798Z,13.91
2023-01-03T08:43:21.757Z,14.05
2023-01-03T08:45:49.127Z,14.10
2023-01-03T08:48:16.711Z,14.18
2023-01-03T08:50:43.303Z,14.09
2023-01-03T08:53:09.918Z,14.08
2023-01-03T08:55:36.450Z,14.10
2023-01-03T08:58:03.100Z,14.11
2023-01-03T09:00:29.937Z,14.29
2023-01-03T09:03:02.400Z,14.34
2023-01-03T09:05:29.278Z,14.50
2023-01-03T09:07:56.337Z,14.52
2023-01-03T09:10:23.369Z,14.54
2023-01-03T09:12:50.557Z,14.59
2023-01-03T09:15:17.290Z,14.59
2023-01-03T09:17:45.407Z,14.57
2023-01-03T09:20:12.808Z,14.41
2023-01-03T09:22:39.663Z,14.27
2023-01-03T09:25:07.007Z,14.28
2023-01-03T09:27:33.703Z,14.28
2023-01-03T09:30:00.372Z,14.22
2023-01-03T09:32:26.957Z,14.12
2023-01-03T09:34:53.678Z,14.07
2023-01-03T09:37:20.232Z,14.06
2023-01-03T09:39:47.048Z,14.12
2023-01-03T09:42:43.350Z,14.02
2023-01-03T09:45:13.871Z,14.14
2023-01-03T09:47:41.766Z,14.18
2023-01-03T09:50:39.404Z,14.25
2023-01-03T09:53:20.124Z,14.25
2023-01-03T09:56:25.217Z,14.38
2023-01-03T09:59:12.715Z,14.37
2023-01-03T10:02:04.566Z,14.41
2023-01-03T10:04:31.314Z,14.42
2023-01-03T10:07:08.710Z,14.53
2023-01-03T10:09:51.586Z,14.60
2023-01-03T10:12:30.045Z,14.52
2023-01-03T10:15:11.621Z,14.53
2023-01-03T10:17:47.067Z,14.45
2023-01-03T10:20:18.610Z,14.48
2023-01-03T10:22:47.622Z,14.51
2023-01-03T10:25:17.379Z,14.54
2023-01-03T10:27:46.518Z,14.71
2023-01-03T10:30:15.763Z,14.78
2023-01-03T10:32:54.500Z,14.80
2023-01-03T10:35:21.119Z,14.88
2023-01-03T10:37:50.457Z,14.83
2023-01-03T10:40:17.122Z,14.70
2023-01-03T10:42:43.885Z,14.73
2023-01-03T10:45:18.869Z,14.85
2023-01-03T10:47:57.270Z,14.85
2023-01-03T10:50:24.216Z,14.84
2023-01-03T10:52:58.622Z,14.88
2023-01-03T10:55:26.499Z,14.92
2023-01-03T10:57:53.092Z,14.92
2023-01-03T11:00:30.313Z,15.02
2023-01-03T11:03:03.073Z,14.96
2023-01-03T11:05:29.900Z,15.11
2023-01-03T11:07:58.107Z,15.27
2023-01-03T11:10:29.935Z,15.24
2023-01-03T11:12:56.580Z,15.32
2023-01-03T11:15:37.883Z,15.40
2023-01-03T11:18:16.199Z,15.46
2023-01-03T11:21:01.517Z,15.54
2023-01-03T11:23:33.973Z,15.60
2023-01-03T11:26:00.580Z,15.64
2023-01-03T11:28:40.184Z,15.70
2023-01-03T11:31:06.968Z,15.68
2023-01-03T11:33:36.321Z,15.68
2023-01-03T11:36:22.625Z,15.68
2023-01-03T11:38:49.243Z,15.62
2023-01-03T11:41:15.835Z,15.74
2023-01-03T11:44:01.361Z,15.81
2023-01-03T11:46:40.232Z,15.91
2023-01-03T11:49:25.705Z,15.93
2023-01-03T11:51:52.301Z,15.90
2023-01-03T11:54:37.597Z,15.82
2023-01-03T11:57:24.425Z,16.01
2023-01-03T12:00:13.877Z,15.99
2023-01-03T12:03:00.564Z,16.22
2023-01-03T12:05:37.508Z,16.28
2023-01-03T12:08:04.136Z,16.33
2023-01-03T12:10:42.730Z,16.50
2023-01-03T12:13:25.344Z,16.57
2023-01-03T12:16:10.987Z,16.74
2023-01-03T12:18:42.352Z,16.76
2023-01-03T12:21:11.783Z,16.87
2023-01-03T12:23:51.504Z,16.88
2023-01-03T12:26:18.542Z,16.93
2023-01-03T12:28:49.182Z,16.89
2023-01-03T12:31:27.887Z,17.01
2023-01-03T12:34:16.671Z,17.09
2023-01-03T12:36:46.043Z,17.12
2023-01-03T12:39:12.602Z,17.28
2023-01-03T12:42:05.480Z,17.39
2023-01-03T12:44:36.357Z,17.49
2023-01-03T12:47:03.703Z,17.53
2023-01-03T12:49:34.448Z,17.65
2023-01-03T12:52:01.135Z,17.72
2023-01-03T12:54:30.807Z,17.79
2023-01-03T12:57:15.463Z,17.82
2023-01-03T12:59:54.159Z,17.88
2023-01-03T13:02:39.548Z,17.96
2023-01-03T13:05:28.640Z,18.02
2023-01-03T13:08:19.427Z,18.03
2023-01-03T13:10:49.400Z,18.07
2023-01-03T13:13:17.727Z,18.06
2023-01-03T13:15:46.329Z,17.99
2023-01-03T13:18:16.044Z,17.97
2023-01-03T13:20:47.939Z,17.94
2023-01-03T13:23:25.350Z,17.82
2023-01-03T13:26:06.911Z,17.96
2023-01-03T13:28:34.914Z,17.99
2023-01-03T13:31:17.199Z,17.94
2023-01-03T13:33:58.294Z,18.00
2023-01-03T13:36:24.927Z,17.93
2023-01-03T13:38:51.667Z,18.00
2023-01-03T13:41:37.819Z,18.06
2023-01-03T13:44:23.374Z,18.06
2023-01-03T13:46:51.155Z,18.07
2023-01-03T13:49:22.995Z,17.98
2023-01-03T13:51:51.813Z,17.93
2023-01-03T13:54:18.691Z,17.86
2023-01-03T13:56:45.376Z,17.84
2023-01-03T13:59:14.870Z,17.83
2023-01-03T14:01:44.680Z,17.77
2023-01-03T14:04:17.420Z,17.69
2023-01-03T14:06:52.884Z,17.61
2023-01-03T14:09:19.565Z,17.57
2023-01-03T14:11:49.132Z,17.50
2023-01-03T14:14:20.644Z,17.52
2023-01-03T14:16:48.831Z,17.44
2023-01-03T14:19:26.526Z,17.42
2023-01-03T14:21:55.461Z,17.40
2023-01-03T14:24:24.517Z,17.40
2023-01-03T14:26:51.499Z,17.34
2023-01-03T14:29:20.666Z,17.32
2023-01-03T14:31:49.454Z,17.30
2023-01-03T14:34:25.207Z,17.28
2023-01-03T14:36:51.820Z,17.22
2023-01-03T14:39:23.071Z,17.21
2023-01-03T14:41:49.805Z,17.19
2023-01-03T14:44:16.907Z,17.20
2023-01-03T14:46:53.270Z,17.20
2023-01-03T14:49:30.261Z,17.14
2023-01-03T14:52:01.265Z,17.17
2023-01-03T14:54:29.132Z,17.16
2023-01-03T14:56:55.914Z,17.15
2023-01-03T14:59:23.112Z,17.13
2023-01-03T15:01:50.484Z,17.11
2023-01-03T15:04:18.797Z,17.11
2023-01-03T15:07:04.915Z,17.11
2023-01-03T15:09:36.280Z,17.15
2023-01-03T15:12:04.960Z,17.18
2023-01-03T15:14:34.040Z,17.17
2023-01-03T15:17:05.595Z,17.21
2023-01-03T15:19:33.978Z,17.10
2023-01-03T15:22:14.591Z,17.14
2023-01-03T15:24:43.673Z,17.15
2023-01-03T15:27:28.844Z,17.22
2023-01-03T15:29:55.565Z,17.22
2023-01-03T15:32:22.217Z,17.18
2023-01-03T15:34:49.613Z,17.18
2023-01-03T15:37:22.440Z,17.17
2023-01-03T15:39:50.619Z,17.18
2023-01-03T15:42:46.662Z,17.18
2023-01-03T15:45:20.167Z,17.16
2023-01-03T15:47:47.801Z,17.17
2023-01-03T15:50:15.840Z,17.13
2023-01-03T15:52:42.830Z,17.12
2023-01-03T15:55:12.238Z,17.16
2023-01-03T15:57:39.228Z,17.15
2023-01-03T16:00:08.316Z,17.13
2023-01-03T16:02:35.067Z,17.12
2023-01-03T16:05:01.697Z,17.14
2023-01-03T16:07:28.323Z,17.15
2023-01-03T16:09:54.836Z,17.11
2023-01-03T16:12:23.551Z,17.12
2023-01-03T16:14:52.895Z,17.10
2023-01-03T16:17:24.935Z,17.07
2023-01-03T16:19:52.511Z,17.06
2023-01-03T16:22:36.200Z,16.98
2023-01-03T16:25:04.425Z,16.98
2023-01-03T16:27:30.970Z,16.89
2023-01-03T16:29:57.651Z,16.85
2023-01-03T16:32:29.030Z,16.82
2023-01-03T16:35:02.868Z,16.72
2023-01-03T16:37:29.497Z,16.74
2023-01-03T16:39:56.101Z,16.69
2023-01-03T16:42:27.611Z,16.68
2023-01-03T16:44:54.659Z,16.65
2023-01-03T16:47:22.862Z,16.56
2023-01-03T16:49:57.701Z,16.54
2023-01-03T16:52:26.212Z,16.49
2023-01-03T16:54:53.295Z,16.45
2023-01-03T16:57:21.565Z,16.44
2023-01-03T16:59:49.224Z,16.30
2023-01-03T17:02:15.955Z,16.33
2023-01-03T17:04:42.769Z,16.28
2023-01-03T17:07:16.825Z,16.25
2023-01-03T17:09:46.789Z,16.21
2023-01-03T17:12:15.375Z,16.20
2023-01-03T17:14:41.944Z,16.20
2023-01-03T17:17:19.037Z,16.21
2023-01-03T17:22:32.681Z,16.18
2023-01-03T17:24:59.277Z,16.15
2023-01-03T17:27:31.948Z,16.14
2023-01-03T17:30:01.070Z,16.11
2023-01-03T17:32:27.637Z,16.09
2023-01-03T17:34:54.251Z,16.09
2023-01-03T17:37:21.907Z,16.05
2023-01-03T17:39:52.811Z,16.05
2023-01-03T17:42:19.435Z,16.00
2023-01-03T17:45:06.738Z,15.93
2023-01-03T17:47:57.798Z,15.88
2023-01-03T17:50:24.806Z,15.77
2023-01-03T17:52:55.686Z,15.74
2023-01-03T17:55:24.469Z,15.73
2023-01-03T17:57:51.128Z,15.71
2023-01-03T18:00:25.617Z,15.70
2023-01-03T18:02:54.690Z,15.62
2023-01-03T18:05:27.527Z,15.60
2023-01-03T18:07:58.753Z,15.59
2023-01-03T18:10:47.251Z,15.58
2023-01-03T18:13:19.993Z,15.54
2023-01-03T18:15:46.623Z,15.42
2023-01-03T18:18:17.439Z,15.45
2023-01-03T18:20:44.624Z,15.38
2023-01-03T18:23:31.458Z,15.40
2023-01-03T18:26:00.150Z,15.32
2023-01-03T18:28:27.305Z,15.29
2023-01-03T18:30:54.625Z,15.24
2023-01-03T18:33:21.298Z,15.19
2023-01-03T18:35:48.489Z,15.22
2023-01-03T18:38:29.640Z,15.20
2023-01-03T18:41:02.549Z,15.10
2023-01-03T18:43:31.973Z,15.09
2023-01-03T18:45:58.656Z,15.08
2023-01-03T18:48:25.433Z,14.88
2023-01-03T18:50:58.319Z,14.78
2023-01-03T18:53:28.396Z,14.71
2023-01-03T18:55:55.077Z,14.71
2023-01-03T18:58:31.761Z,14.53
2023-01-03T19:00:58.757Z,14.65
2023-01-03T19:03:26.481Z,14.64
2023-01-03T19:05:55.340Z,14.60
2023-01-03T19:08:23.794Z,14.63
2023-01-03T19:10:50.777Z,14.66
2023-01-03T19:13:25.579Z,14.48
2023-01-03T19:15:52.405Z,14.38
2023-01-03T19:18:19.066Z,14.29
2023-01-03T19:20:46.136Z,14.17
2023-01-03T19:23:20.231Z,14.20
2023-01-03T19:25:46.895Z,14.30
2023-01-03T19:28:13.545Z,14.27
2023-01-03T19:30:44.440Z,14.10
2023-01-03T19:33:12.660Z,14.11
2023-01-03T19:35:39.209Z,13.94
2023-01-03T19:38:05.825Z,13.84
2023-01-03T19:40:34.299Z,13.76
2023-01-03T19:43:01.004Z,13.71
2023-01-03T19:45:29.270Z,13.71
2023-01-03T19:47:56.544Z,13.76
2023-01-03T19:50:25.013Z,13.82
2023-01-03T19:52:53.240Z,13.87
2023-01-03T19:55:26.822Z,13.86
2023-01-03T19:57:53.605Z,13.84
2023-01-03T20:00:21.955Z,13.87
2023-01-03T20:02:51.733Z,13.73
2023-01-03T20:05:20.154Z,13.66
2023-01-03T20:07:48.961Z,13.45
2023-01-03T20:10:17.388Z,13.36
2023-01-03T20:12:43.975Z,13.37
2023-01-03T20:15:15.387Z,13.41
2023-01-03T20:17:41.968Z,13.50
2023-01-03T20:20:09.709Z,13.53
2023-01-03T20:25:25.255Z,13.27
2023-01-03T20:27:52.062Z,13.21
2023-01-03T20:30:19.668Z,13.28
2023-01-03T20:32:46.294Z,13.19
2023-01-03T20:38:03.745Z,13.18
2023-01-03T20:40:30.288Z,13.19
2023-01-03T20:42:58.301Z,13.08
2023-01-03T20:45:24.859Z,13.27
2023-01-03T20:47:54.236Z,13.22
2023-01-03T20:50:22.634Z,13.23
2023-01-03T20:52:49.273Z,13.09
2023-01-03T20:55:19.942Z,13.03
2023-01-03T20:57:47.159Z,12.99
2023-01-03T21:00:16.729Z,12.99
2023-01-03T21:02:43.492Z,13.10
2023-01-03T21:05:10.255Z,13.11
2023-01-03T21:07:55.414Z,13.03
2023-01-03T21:10:26.745Z,12.99
2023-01-03T21:12:53.530Z,12.95
2023-01-03T21:15:20.082Z,12.99
2023-01-03T21:17:50.746Z,13.02
2023-01-03T21:20:21.467Z,12.94
2023-01-03T21:22:48.113Z,12.99
2023-01-03T21:25:19.120Z,12.81
2023-01-03T21:27:45.795Z,12.82
2023-01-03T21:30:12.693Z,12.87
2023-01-03T21:32:39.278Z,12.90
2023-01-03T21:35:06.118Z,12.73
2023-01-03T21:37:32.666Z,12.85
2023-01-03T21:39:59.174Z,12.90
2023-01-03T21:42:44.693Z,13.02
2023-01-03T21:45:12.729Z,13.09
2023-01-03T21:47:39.315Z,13.14
2023-01-03T21:50:06.244Z,13.15
2023-01-03T21:52:32.813Z,13.23
2023-01-03T21:54:59.387Z,13.24
2023-01-03T21:57:26.003Z,13.09
2023-01-03T21:59:52.610Z,13.16
2023-01-03T22:02:38.012Z,13.08
2023-01-03T22:05:04.764Z,13.15
2023-01-03T22:07:31.311Z,13.05
2023-01-03T22:10:16.224Z,13.10
2023-01-03T22:12:43.399Z,13.16
2023-01-03T22:15:10.173Z,13.20
2023-01-03T22:17:37.088Z,13.16
2023-01-03T22:20:06.351Z,13.00
2023-01-03T22:22:35.784Z,13.08
2023-01-03T22:25:02.471Z,13.14
2023-01-03T22:27:29.051Z,13.11
2023-01-03T22:29:55.682Z,13.17
2023-01-03T22:32:23.087Z,13.13
2023-01-03T22:34:49.839Z,13.13
2023-01-03T22:37:17.014Z,13.16
2023-01-03T22:39:43.722Z,13.11
2023-01-03T22:42:14.556Z,12.97
2023-01-03T22:44:44.301Z,12.98
2023-01-03T22:47:10.885Z,13.03
2023-01-03T22:49:37.592Z,12.99
2023-01-03T22:52:04.246Z,13.02
2023-01-03T22:54:30.881Z,12.91
2023-01-03T22:56:57.493Z,12.92
2023-01-03T22:59:24.335Z,12.88
2023-01-03T23:01:50.965Z,12.82
2023-01-03T23:04:19.302Z,12.85
2023-01-03T23:06:46.457Z,12.84
2023-01-03T23:09:13.921Z,12.81
2023-01-03T23:11:59.061Z,12.84
2023-01-03T23:14:26.536Z,12.86
2023-01-03T23:16:55.959Z,12.89
2023-01-03T23:19:24.113Z,12.92
2023-01-03T23:21:51.393Z,12.93
2023-01-03T23:24:19.818Z,12.92
2023-01-03T23:26:46.364Z,12.91
2023-01-03T23:29:14.430Z,12.83
2023-01-03T23:31:41.653Z,12.82
2023-01-03T23:34:09.407Z,12.78
2023-01-03T23:36:36.042Z,12.79
2023-01-03T23:39:03.240Z,12.72
2023-01-03T23:41:30.156Z,12.73
2023-01-03T23:43:56.748Z,12.65
2023-01-03T23:46:24.320Z,12.68
2023-01-03T23:48:55.330Z,12.66
2023-01-03T23:51:21.979Z,12.66
2023-01-03T23:53:48.527Z,12.59
2023-01-03T23:56:16.138Z,12.63
2023-01-03T23:58:43.233Z,12.66
